sensor_id;sensor_type;location;lat;lon;timestamp;temperature;humidity
5848;DHT22;8756;49.29324300;8.70599800;2023-03-01T00:01:58;1.10;99.90
5848;DHT22;8756;49.29324300;8.70599800;2023-03-01T00:04:24;1.10;99.90
5848;DHT22;8756;49.29324300;8.70599800;2023-03-01T00:06:50;1.00;99.90
5848;DHT22;8756;49.29324300;8.70599800;2023-03-01T00:09:16;1.10;99.90
5848;DHT22;8756;49.29324300;8.70599800;2023-03-01T00:11:42;1.00;99.90
5848;DHT22;8756;49.29324300;8.70599800;2023-03-01T00:14:08;1.00;99.90
5848;DHT22;8756;49.29324300;8.70599800;2023-03-01T00:16:37;1.00;99.90
5848;DHT22;8756;49.29324300;8.70599800;2023-03-01T00:19:05;0.90;99.90
5848;DHT22;8756;49.29324300;8.70599800;2023-03-01T00:21:32;0.90;99.90
5848;DHT22;8756;49.29324300;8.70599800;2023-03-01T00:23:59;0.90;99.90
5848;DHT22;8756;49.29324300;8.70599800;2023-03-01T00:26:26;0.90;99.90
5848;DHT22;8756;49.29324300;8.70599800;2023-03-01T00:28:52;0.90;99.90
5848;DHT22;8756;49.29324300;8.70599800;2023-03-01T00:31:21;0.90;99.90
5848;DHT22;8756;49.29324300;8.70599800;2023-03-01T00:33:48;0.80;99.90
5848;DHT22;8756;49.29324300;8.70599800;2023-03-01T00:36:15;0.80;99.90
5848;DHT22;8756;49.29324300;8.70599800;2023-03-01T00:38:44;0.70;99.90
5848;DHT22;8756;49.29324300;8.70599800;2023-03-01T00:41:15;0.70;99.90
5848;DHT22;8756;49.29324300;8.70599800;2023-03-01T00:43:42;0.70;99.90
5848;DHT22;8756;49.29324300;8.70599800;2023-03-01T00:46:13;0.60;99.90
5848;DHT22;8756;49.29324300;8.70599800;2023-03-01T00:48:40;0.60;99.90
5848;DHT22;8756;49.29324300;8.70599800;2023-03-01T00:51:18;0.60;99.90
5848;DHT22;8756;49.29324300;8.70599800;2023-03-01T00:53:46;0.60;99.90
5848;DHT22;8756;49.29324300;8.70599800;2023-03-01T00:56:13;0.60;99.90
5848;DHT22;8756;49.29324300;8.70599800;2023-03-01T00:58:40;0.50;99.90
5848;DHT22;8756;49.29324300;8.70599800;2023-03-01T01:01:14;0.60;99.90
5848;DHT22;8756;49.29324300;8.70599800;2023-03-01T01:03:53;0.50;99.90
5848;DHT22;8756;49.29324300;8.70599800;2023-03-01T01:06:27;0.50;99.90
5848;DHT22;8756;49.29324300;8.70599800;2023-03-01T01:08:55;0.60;99.90
5848;DHT22;8756;49.29324300;8.70599800;2023-03-01T01:11:24;0.50;99.90
5848;DHT22;8756;49.29324300;8.70599800;2023-03-01T01:13:51;0.50;99.90
5848;DHT22;8756;49.29324300;8.70599800;2023-03-01T01:16:20;0.50;99.90
5848;DHT22;8756;49.29324300;8.70599800;2023-03-01T01:18:47;0.50;99.90
5848;DHT22;8756;49.29324300;8.70599800;2023-03-01T01:21:15;0.50;99.90
5848;DHT22;8756;49.29324300;8.70599800;2023-03-01T01:23:43;0.50;99.90
5848;DHT22;8756;49.29324300;8.70599800;2023-03-01T01:26:11;0.50;99.90
5848;DHT22;8756;49.29324300;8.70599800;2023-03-01T01:28:51;0.50;99.90
5848;DHT22;8756;49.29324300;8.70599800;2023-03-01T01:31:18;0.50;99.90
5848;DHT22;8756;49.29324300;8.70599800;2023-03-01T01:33:44;0.50;99.90
5848;DHT22;8756;49.29324300;8.70599800;2023-03-01T01:36:11;0.50;99.90
5848;DHT22;8756;49.29324300;8.70599800;2023-03-01T01:38:38;0.50;99.90
5848;DHT22;8756;49.29324300;8.70599800;2023-03-01T01:41:05;0.60;99.90
5848;DHT22;8756;49.29324300;8.70599800;2023-03-01T01:43:37;0.50;99.90
5848;DHT22;8756;49.29324300;8.70599800;2023-03-01T01:46:30;0.50;99.90
5848;DHT22;8756;49.29324300;8.70599800;2023-03-01T01:49:01;0.50;99.90
5848;DHT22;8756;49.29324300;8.70599800;2023-03-01T01:51:32;0.60;99.90
5848;DHT22;8756;49.29324300;8.70599800;2023-03-01T01:54:08;0.50;99.90
5848;DHT22;8756;49.29324300;8.70599800;2023-03-01T01:56:37;0.60;99.90
5848;DHT22;8756;49.29324300;8.70599800;2023-03-01T01:59:06;0.60;99.90
5848;DHT22;8756;49.29324300;8.70599800;2023-03-01T02:01:31;0.60;99.90
5848;DHT22;8756;49.29324300;8.70599800;2023-03-01T02:03:57;0.60;99.90
5848;DHT22;8756;49.29324300;8.70599800;2023-03-01T02:06:34;0.60;99.90
5848;DHT22;8756;49.29324300;8.70599800;2023-03-01T02:09:07;0.60;99.90
5848;DHT22;8756;49.29324300;8.70599800;2023-03-01T02:11:39;0.50;99.90
5848;DHT22;8756;49.29324300;8.70599800;2023-03-01T02:14:05;0.50;99.90
5848;DHT22;8756;49.29324300;8.70599800;2023-03-01T02:16:31;0.40;99.90
5848;DHT22;8756;49.29324300;8.70599800;2023-03-01T02:18:58;0.40;99.90
5848;DHT22;8756;49.29324300;8.70599800;2023-03-01T02:21:30;0.40;99.90
5848;DHT22;8756;49.29324300;8.70599800;2023-03-01T02:26:58;0.30;99.90
5848;DHT22;8756;49.29324300;8.70599800;2023-03-01T02:29:26;0.20;99.90
5848;DHT22;8756;49.29324300;8.70599800;2023-03-01T02:31:54;0.20;99.90
5848;DHT22;8756;49.29324300;8.70599800;2023-03-01T02:34:24;0.10;99.90
5848;DHT22;8756;49.29324300;8.70599800;2023-03-01T02:37:01;0.10;99.90
5848;DHT22;8756;49.29324300;8.70599800;2023-03-01T02:39:40;0.10;99.90
5848;DHT22;8756;49.29324300;8.70599800;2023-03-01T02:42:12;0.10;99.90
5848;DHT22;8756;49.29324300;8.70599800;2023-03-01T02:44:38;0.10;99.90
5848;DHT22;8756;49.29324300;8.70599800;2023-03-01T02:47:04;0.10;99.90
5848;DHT22;8756;49.29324300;8.70599800;2023-03-01T02:49:34;0.10;99.90
5848;DHT22;8756;49.29324300;8.70599800;2023-03-01T02:52:33;0.10;99.90
5848;DHT22;8756;49.29324300;8.70599800;2023-03-01T02:55:15;0.10;99.90
5848;DHT22;8756;49.29324300;8.70599800;2023-03-01T02:57:44;0.10;99.90
5848;DHT22;8756;49.29324300;8.70599800;2023-03-01T03:00:14;0.10;99.90
5848;DHT22;8756;49.29324300;8.70599800;2023-03-01T03:02:49;0.10;99.90
5848;DHT22;8756;49.29324300;8.70599800;2023-03-01T03:05:18;0.10;99.90
5848;DHT22;8756;49.29324300;8.70599800;2023-03-01T03:07:47;0.10;99.90
5848;DHT22;8756;49.29324300;8.70599800;2023-03-01T03:10:20;0.10;99.90
5848;DHT22;8756;49.29324300;8.70599800;2023-03-01T03:12:53;0.10;99.90
5848;DHT22;8756;49.29324300;8.70599800;2023-03-01T03:15:21;0.10;99.90
5848;DHT22;8756;49.29324300;8.70599800;2023-03-01T03:17:48;0.10;99.90
5848;DHT22;8756;49.29324300;8.70599800;2023-03-01T03:22:45;0.00;99.90
5848;DHT22;8756;49.29324300;8.70599800;2023-03-01T03:25:16;0.00;99.90
5848;DHT22;8756;49.29324300;8.70599800;2023-03-01T03:27:44;0.00;99.90
5848;DHT22;8756;49.29324300;8.70599800;2023-03-01T03:30:13;0.00;99.90
5848;DHT22;8756;49.29324300;8.70599800;2023-03-01T03:32:42;0.00;99.90
5848;DHT22;8756;49.29324300;8.70599800;2023-03-01T03:35:26;0.00;99.90
5848;DHT22;8756;49.29324300;8.70599800;2023-03-01T03:37:57;0.00;99.90
5848;DHT22;8756;49.29324300;8.70599800;2023-03-01T03:40:32;0.00;99.90
5848;DHT22;8756;49.29324300;8.70599800;2023-03-01T03:43:00;0.00;99.90
5848;DHT22;8756;49.29324300;8.70599800;2023-03-01T03:45:26;0.00;99.90
5848;DHT22;8756;49.29324300;8.70599800;2023-03-01T03:47:52;-0.10;99.90
5848;DHT22;8756;49.29324300;8.70599800;2023-03-01T03:50:17;0.00;99.90
5848;DHT22;8756;49.29324300;8.70599800;2023-03-01T03:52:44;-0.10;99.90
5848;DHT22;8756;49.29324300;8.70599800;2023-03-01T03:55:11;-0.10;99.90
5848;DHT22;8756;49.29324300;8.70599800;2023-03-01T03:57:38;-0.10;99.90
5848;DHT22;8756;49.29324300;8.70599800;2023-03-01T04:00:09;-0.10;99.90
5848;DHT22;8756;49.29324300;8.70599800;2023-03-01T04:02:41;-0.10;99.90
5848;DHT22;8756;49.29324300;8.70599800;2023-03-01T04:05:09;-0.10;99.90
5848;DHT22;8756;49.29324300;8.70599800;2023-03-01T04:07:36;-0.10;99.90
5848;DHT22;8756;49.29324300;8.70599800;2023-03-01T04:10:04;-0.10;99.90
5848;DHT22;8756;49.29324300;8.70599800;2023-03-01T04:12:32;-0.10;99.90
5848;DHT22;8756;49.29324300;8.70599800;2023-03-01T04:15:00;0.00;99.90
5848;DHT22;8756;49.29324300;8.70599800;2023-03-01T04:17:39;-0.10;99.90
5848;DHT22;8756;49.29324300;8.70599800;2023-03-01T04:20:06;-0.10;99.90
5848;DHT22;8756;49.29324300;8.70599800;2023-03-01T04:22:32;-0.10;99.90
5848;DHT22;8756;49.29324300;8.70599800;2023-03-01T04:24:58;-0.10;99.90
5848;DHT22;8756;49.29324300;8.70599800;2023-03-01T04:27:34;-0.10;99.90
5848;DHT22;8756;49.29324300;8.70599800;2023-03-01T04:30:01;-0.10;99.90
5848;DHT22;8756;49.29324300;8.70599800;2023-03-01T04:32:28;-0.10;99.90
5848;DHT22;8756;49.29324300;8.70599800;2023-03-01T04:34:54;-0.10;99.90
5848;DHT22;8756;49.29324300;8.70599800;2023-03-01T04:37:20;-0.10;99.90
5848;DHT22;8756;49.29324300;8.70599800;2023-03-01T04:39:45;-0.10;99.90
5848;DHT22;8756;49.29324300;8.70599800;2023-03-01T04:42:13;-0.10;99.90
5848;DHT22;8756;49.29324300;8.70599800;2023-03-01T04:44:43;-0.10;99.90
5848;DHT22;8756;49.29324300;8.70599800;2023-03-01T04:47:09;-0.10;99.90
5848;DHT22;8756;49.29324300;8.70599800;2023-03-01T04:49:35;-0.10;99.90
5848;DHT22;8756;49.29324300;8.70599800;2023-03-01T04:52:01;-0.10;99.90
5848;DHT22;8756;49.29324300;8.70599800;2023-03-01T04:54:33;-0.10;99.90
5848;DHT22;8756;49.29324300;8.70599800;2023-03-01T04:57:00;-0.10;99.90
5848;DHT22;8756;49.29324300;8.70599800;2023-03-01T04:59:26;-0.10;99.90
5848;DHT22;8756;49.29324300;8.70599800;2023-03-01T05:01:56;-0.20;99.90
5848;DHT22;8756;49.29324300;8.70599800;2023-03-01T05:04:25;-0.20;99.90
5848;DHT22;8756;49.29324300;8.70599800;2023-03-01T05:06:50;-0.20;99.90
5848;DHT22;8756;49.29324300;8.70599800;2023-03-01T05:09:16;-0.20;99.90
5848;DHT22;8756;49.29324300;8.70599800;2023-03-01T05:11:42;-0.20;99.90
5848;DHT22;8756;49.29324300;8.70599800;2023-03-01T05:14:09;-0.10;99.90
5848;DHT22;8756;49.29324300;8.70599800;2023-03-01T05:16:35;-0.20;99.90
5848;DHT22;8756;49.29324300;8.70599800;2023-03-01T05:19:02;-0.20;99.90
5848;DHT22;8756;49.29324300;8.70599800;2023-03-01T05:21:39;-0.20;99.90
5848;DHT22;8756;49.29324300;8.70599800;2023-03-01T05:24:25;-0.20;99.90
5848;DHT22;8756;49.29324300;8.70599800;2023-03-01T05:26:52;-0.20;99.90
5848;DHT22;8756;49.29324300;8.70599800;2023-03-01T05:29:23;-0.20;99.90
5848;DHT22;8756;49.29324300;8.70599800;2023-03-01T05:31:57;-0.20;99.90
5848;DHT22;8756;49.29324300;8.70599800;2023-03-01T05:34:29;-0.30;99.90
5848;DHT22;8756;49.29324300;8.70599800;2023-03-01T05:36:56;-0.30;99.90
5848;DHT22;8756;49.29324300;8.70599800;2023-03-01T05:39:24;-0.30;99.90
5848;DHT22;8756;49.29324300;8.70599800;2023-03-01T05:41:55;-0.30;99.90
5848;DHT22;8756;49.29324300;8.70599800;2023-03-01T05:44:22;-0.30;99.90
5848;DHT22;8756;49.29324300;8.70599800;2023-03-01T05:46:49;-0.30;99.90
5848;DHT22;8756;49.29324300;8.70599800;2023-03-01T05:49:15;-0.30;99.90
5848;DHT22;8756;49.29324300;8.70599800;2023-03-01T05:51:42;-0.30;99.90
5848;DHT22;8756;49.29324300;8.70599800;2023-03-01T05:54:09;-0.30;99.90
5848;DHT22;8756;49.29324300;8.70599800;2023-03-01T05:56:36;-0.30;99.90
5848;DHT22;8756;49.29324300;8.70599800;2023-03-01T05:59:03;-0.30;99.90
5848;DHT22;8756;49.29324300;8.70599800;2023-03-01T06:01:31;-0.40;99.90
5848;DHT22;8756;49.29324300;8.70599800;2023-03-01T06:03:57;-0.40;99.90
5848;DHT22;8756;49.29324300;8.70599800;2023-03-01T06:06:26;-0.30;99.90
5848;DHT22;8756;49.29324300;8.70599800;2023-03-01T06:08:53;-0.30;99.90
5848;DHT22;8756;49.29324300;8.70599800;2023-03-01T06:11:20;-0.40;99.90
5848;DHT22;8756;49.29324300;8.70599800;2023-03-01T06:13:47;-0.40;99.90
5848;DHT22;8756;49.29324300;8.70599800;2023-03-01T06:16:13;-0.40;99.90
5848;DHT22;8756;49.29324300;8.70599800;2023-03-01T06:18:39;-0.40;99.90
5848;DHT22;8756;49.29324300;8.70599800;2023-03-01T06:21:06;-0.30;99.90
5848;DHT22;8756;49.29324300;8.70599800;2023-03-01T06:23:33;-0.40;99.90
5848;DHT22;8756;49.29324300;8.70599800;2023-03-01T06:26:00;-0.30;99.90
5848;DHT22;8756;49.29324300;8.70599800;2023-03-01T06:28:26;-0.40;99.90
5848;DHT22;8756;49.29324300;8.70599800;2023-03-01T06:30:52;-0.40;99.90
5848;DHT22;8756;49.29324300;8.70599800;2023-03-01T06:33:18;-0.30;99.90
5848;DHT22;8756;49.29324300;8.70599800;2023-03-01T06:35:46;-0.40;99.90
5848;DHT22;8756;49.29324300;8.70599800;2023-03-01T06:38:12;-0.30;99.90
5848;DHT22;8756;49.29324300;8.70599800;2023-03-01T06:40:40;-0.30;99.90
5848;DHT22;8756;49.29324300;8.70599800;2023-03-01T06:43:06;-0.30;99.90
5848;DHT22;8756;49.29324300;8.70599800;2023-03-01T06:45:33;-0.30;99.90
5848;DHT22;8756;49.29324300;8.70599800;2023-03-01T06:48:04;-0.30;99.90
5848;DHT22;8756;49.29324300;8.70599800;2023-03-01T06:50:31;-0.30;99.90
5848;DHT22;8756;49.29324300;8.70599800;2023-03-01T06:52:58;-0.30;99.90
5848;DHT22;8756;49.29324300;8.70599800;2023-03-01T06:55:24;-0.30;99.90
5848;DHT22;8756;49.29324300;8.70599800;2023-03-01T06:58:00;-0.30;99.90
5848;DHT22;8756;49.29324300;8.70599800;2023-03-01T07:00:27;-0.30;99.90
5848;DHT22;8756;49.29324300;8.70599800;2023-03-01T07:02:53;-0.20;99.90
5848;DHT22;8756;49.29324300;8.70599800;2023-03-01T07:05:21;-0.20;99.90
5848;DHT22;8756;49.29324300;8.70599800;2023-03-01T07:07:47;-0.10;99.90
5848;DHT22;8756;49.29324300;8.70599800;2023-03-01T07:10:12;-0.10;99.90
5848;DHT22;8756;49.29324300;8.70599800;2023-03-01T07:12:38;-0.10;99.90
5848;DHT22;8756;49.29324300;8.70599800;2023-03-01T07:15:04;0.00;99.90
5848;DHT22;8756;49.29324300;8.70599800;2023-03-01T07:17:31;0.00;99.90
5848;DHT22;8756;49.29324300;8.70599800;2023-03-01T07:19:57;0.10;99.90
5848;DHT22;8756;49.29324300;8.70599800;2023-03-01T07:22:23;0.10;99.90
5848;DHT22;8756;49.29324300;8.70599800;2023-03-01T07:24:48;0.20;99.90
5848;DHT22;8756;49.29324300;8.70599800;2023-03-01T07:27:14;0.20;99.90
5848;DHT22;8756;49.29324300;8.70599800;2023-03-01T07:29:40;0.20;99.90
5848;DHT22;8756;49.29324300;8.70599800;2023-03-01T07:32:06;0.30;99.90
5848;DHT22;8756;49.29324300;8.70599800;2023-03-01T07:34:32;0.30;99.90
5848;DHT22;8756;49.29324300;8.70599800;2023-03-01T07:36:58;0.40;99.90
5848;DHT22;8756;49.29324300;8.70599800;2023-03-01T07:39:23;0.40;99.90
5848;DHT22;8756;49.29324300;8.70599800;2023-03-01T07:41:50;0.50;99.90
5848;DHT22;8756;49.29324300;8.70599800;2023-03-01T07:44:16;0.50;99.90
5848;DHT22;8756;49.29324300;8.70599800;2023-03-01T07:46:43;0.60;99.90
5848;DHT22;8756;49.29324300;8.70599800;2023-03-01T07:49:09;0.60;99.90
5848;DHT22;8756;49.29324300;8.70599800;2023-03-01T07:51:35;0.70;99.90
5848;DHT22;8756;49.29324300;8.70599800;2023-03-01T07:54:00;0.70;99.90
5848;DHT22;8756;49.29324300;8.70599800;2023-03-01T07:56:26;0.70;99.90
5848;DHT22;8756;49.29324300;8.70599800;2023-03-01T07:58:52;0.80;99.90
5848;DHT22;8756;49.29324300;8.70599800;2023-03-01T08:01:19;0.90;99.90
5848;DHT22;8756;49.29324300;8.70599800;2023-03-01T08:03:46;0.90;99.90
5848;DHT22;8756;49.29324300;8.70599800;2023-03-01T08:06:13;1.00;99.90
5848;DHT22;8756;49.29324300;8.70599800;2023-03-01T08:08:40;1.10;99.90
5848;DHT22;8756;49.29324300;8.70599800;2023-03-01T08:11:07;1.10;99.90
5848;DHT22;8756;49.29324300;8.70599800;2023-03-01T08:13:34;1.10;99.90
5848;DHT22;8756;49.29324300;8.70599800;2023-03-01T08:16:05;1.20;99.90
5848;DHT22;8756;49.29324300;8.70599800;2023-03-01T08:18:35;1.20;99.90
5848;DHT22;8756;49.29324300;8.70599800;2023-03-01T08:21:02;1.30;99.90
5848;DHT22;8756;49.29324300;8.70599800;2023-03-01T08:23:32;1.40;99.90
5848;DHT22;8756;49.29324300;8.70599800;2023-03-01T08:26:09;1.40;99.90
5848;DHT22;8756;49.29324300;8.70599800;2023-03-01T08:28:39;1.40;99.90
5848;DHT22;8756;49.29324300;8.70599800;2023-03-01T08:34:01;1.50;99.90
5848;DHT22;8756;49.29324300;8.70599800;2023-03-01T08:36:32;1.60;99.90
5848;DHT22;8756;49.29324300;8.70599800;2023-03-01T08:38:59;1.60;99.90
5848;DHT22;8756;49.29324300;8.70599800;2023-03-01T08:41:25;1.60;99.90
5848;DHT22;8756;49.29324300;8.70599800;2023-03-01T08:43:51;1.70;99.90
5848;DHT22;8756;49.29324300;8.70599800;2023-03-01T08:46:18;1.70;99.90
5848;DHT22;8756;49.29324300;8.70599800;2023-03-01T08:48:44;1.90;99.90
5848;DHT22;8756;49.29324300;8.70599800;2023-03-01T08:51:16;1.90;99.90
5848;DHT22;8756;49.29324300;8.70599800;2023-03-01T08:53:44;1.90;99.90
5848;DHT22;8756;49.29324300;8.70599800;2023-03-01T08:56:10;2.00;99.90
5848;DHT22;8756;49.29324300;8.70599800;2023-03-01T08:58:37;2.00;99.90
5848;DHT22;8756;49.29324300;8.70599800;2023-03-01T09:01:09;2.10;99.90
5848;DHT22;8756;49.29324300;8.70599800;2023-03-01T09:03:36;2.10;99.90
5848;DHT22;8756;49.29324300;8.70599800;2023-03-01T09:06:03;2.10;99.90
5848;DHT22;8756;49.29324300;8.70599800;2023-03-01T09:08:30;2.20;99.90
5848;DHT22;8756;49.29324300;8.70599800;2023-03-01T09:10:56;2.20;99.90
5848;DHT22;8756;49.29324300;8.70599800;2023-03-01T09:13:22;2.30;99.90
5848;DHT22;8756;49.29324300;8.70599800;2023-03-01T09:15:50;2.30;99.90
5848;DHT22;8756;49.29324300;8.70599800;2023-03-01T09:18:16;2.30;99.90
5848;DHT22;8756;49.29324300;8.70599800;2023-03-01T09:20:41;2.40;99.90
5848;DHT22;8756;49.29324300;8.70599800;2023-03-01T09:23:07;2.40;99.90
5848;DHT22;8756;49.29324300;8.70599800;2023-03-01T09:25:34;2.50;99.90
5848;DHT22;8756;49.29324300;8.70599800;2023-03-01T09:28:00;2.50;99.90
5848;DHT22;8756;49.29324300;8.70599800;2023-03-01T09:30:25;2.50;99.90
5848;DHT22;8756;49.29324300;8.70599800;2023-03-01T09:32:51;2.60;99.90
5848;DHT22;8756;49.29324300;8.70599800;2023-03-01T09:35:18;2.60;99.90
5848;DHT22;8756;49.29324300;8.70599800;2023-03-01T09:37:45;2.70;99.90
5848;DHT22;8756;49.29324300;8.70599800;2023-03-01T09:40:17;2.70;99.90
5848;DHT22;8756;49.29324300;8.70599800;2023-03-01T09:43:04;2.80;99.90
5848;DHT22;8756;49.29324300;8.70599800;2023-03-01T09:45:45;2.90;99.90
5848;DHT22;8756;49.29324300;8.70599800;2023-03-01T09:48:18;3.00;99.90
5848;DHT22;8756;49.29324300;8.70599800;2023-03-01T09:50:47;3.00;99.90
5848;DHT22;8756;49.29324300;8.70599800;2023-03-01T09:53:16;3.00;99.90
5848;DHT22;8756;49.29324300;8.70599800;2023-03-01T09:58:46;3.10;99.90
5848;DHT22;8756;49.29324300;8.70599800;2023-03-01T10:01:30;3.10;99.90
5848;DHT22;8756;49.29324300;8.70599800;2023-03-01T10:07:39;3.20;99.90
5848;DHT22;8756;49.29324300;8.70599800;2023-03-01T10:10:21;3.30;99.90
5848;DHT22;8756;49.29324300;8.70599800;2023-03-01T10:12:52;3.30;99.90
5848;DHT22;8756;49.29324300;8.70599800;2023-03-01T10:15:25;3.40;99.90
5848;DHT22;8756;49.29324300;8.70599800;2023-03-01T10:18:06;3.50;99.90
5848;DHT22;8756;49.29324300;8.70599800;2023-03-01T10:20:46;3.60;99.90
5848;DHT22;8756;49.29324300;8.70599800;2023-03-01T10:23:17;3.70;99.90
5848;DHT22;8756;49.29324300;8.70599800;2023-03-01T10:26:06;3.70;99.90
5848;DHT22;8756;49.29324300;8.70599800;2023-03-01T10:29:05;3.80;99.90
5848;DHT22;8756;49.29324300;8.70599800;2023-03-01T10:31:51;3.90;99.90
5848;DHT22;8756;49.29324300;8.70599800;2023-03-01T10:34:20;3.90;99.90
5848;DHT22;8756;49.29324300;8.70599800;2023-03-01T10:36:57;4.00;99.90
5848;DHT22;8756;49.29324300;8.70599800;2023-03-01T10:39:30;4.00;99.90
5848;DHT22;8756;49.29324300;8.70599800;2023-03-01T10:42:16;4.10;99.90
5848;DHT22;8756;49.29324300;8.70599800;2023-03-01T10:44:55;4.20;99.90
5848;DHT22;8756;49.29324300;8.70599800;2023-03-01T10:47:26;4.20;99.90
5848;DHT22;8756;49.29324300;8.70599800;2023-03-01T10:50:20;4.30;99.90
5848;DHT22;8756;49.29324300;8.70599800;2023-03-01T10:52:59;4.30;99.90
5848;DHT22;8756;49.29324300;8.70599800;2023-03-01T10:55:37;4.40;99.90
5848;DHT22;8756;49.29324300;8.70599800;2023-03-01T11:00:49;4.50;99.90
5848;DHT22;8756;49.29324300;8.70599800;2023-03-01T11:03:21;4.60;99.90
5848;DHT22;8756;49.29324300;8.70599800;2023-03-01T11:06:02;4.60;99.90
5848;DHT22;8756;49.29324300;8.70599800;2023-03-01T11:08:33;4.70;99.90
5848;DHT22;8756;49.29324300;8.70599800;2023-03-01T11:11:04;4.70;99.90
5848;DHT22;8756;49.29324300;8.70599800;2023-03-01T11:13:54;4.80;99.90
5848;DHT22;8756;49.29324300;8.70599800;2023-03-01T11:18:59;4.90;99.90
5848;DHT22;8756;49.29324300;8.70599800;2023-03-01T11:21:28;4.90;99.90
5848;DHT22;8756;49.29324300;8.70599800;2023-03-01T11:23:59;5.00;99.90
5848;DHT22;8756;49.29324300;8.70599800;2023-03-01T11:26:28;5.10;99.90
5848;DHT22;8756;49.29324300;8.70599800;2023-03-01T11:28:56;5.10;99.90
5848;DHT22;8756;49.29324300;8.70599800;2023-03-01T11:31:24;5.10;99.90
5848;DHT22;8756;49.29324300;8.70599800;2023-03-01T11:36:59;5.20;99.90
5848;DHT22;8756;49.29324300;8.70599800;2023-03-01T11:39:52;5.30;99.90
5848;DHT22;8756;49.29324300;8.70599800;2023-03-01T11:42:30;5.30;99.90
5848;DHT22;8756;49.29324300;8.70599800;2023-03-01T11:45:08;5.40;99.90
5848;DHT22;8756;49.29324300;8.70599800;2023-03-01T11:47:55;5.40;99.90
5848;DHT22;8756;49.29324300;8.70599800;2023-03-01T11:51:04;5.50;99.90
5848;DHT22;8756;49.29324300;8.70599800;2023-03-01T12:04:51;5.80;99.90
5848;DHT22;8756;49.29324300;8.70599800;2023-03-01T12:08:10;5.80;99.90
5848;DHT22;8756;49.29324300;8.70599800;2023-03-01T12:11:09;5.90;99.90
5848;DHT22;8756;49.29324300;8.70599800;2023-03-01T12:22:28;6.20;99.90
5848;DHT22;8756;49.29324300;8.70599800;2023-03-01T12:25:14;6.20;99.90
5848;DHT22;8756;49.29324300;8.70599800;2023-03-01T12:28:13;6.30;99.90
5848;DHT22;8756;49.29324300;8.70599800;2023-03-01T12:34:14;6.40;99.90
5848;DHT22;8756;49.29324300;8.70599800;2023-03-01T12:36:52;6.50;99.90
5848;DHT22;8756;49.29324300;8.70599800;2023-03-01T12:49:06;6.70;99.90
5848;DHT22;8756;49.29324300;8.70599800;2023-03-01T12:51:36;6.80;99.90
5848;DHT22;8756;49.29324300;8.70599800;2023-03-01T12:54:24;6.80;99.90
5848;DHT22;8756;49.29324300;8.70599800;2023-03-01T12:56:53;6.80;99.90
5848;DHT22;8756;49.29324300;8.70599800;2023-03-01T13:03:42;7.00;99.90
5848;DHT22;8756;49.29324300;8.70599800;2023-03-01T13:26:09;7.30;99.90
5848;DHT22;8756;49.29324300;8.70599800;2023-03-01T13:28:41;7.30;99.90
5848;DHT22;8756;49.29324300;8.70599800;2023-03-01T13:33:49;7.40;99.90
5848;DHT22;8756;49.29324300;8.70599800;2023-03-01T13:39:00;7.50;99.90
5848;DHT22;8756;49.29324300;8.70599800;2023-03-01T13:44:34;7.50;99.90
5848;DHT22;8756;49.29324300;8.70599800;2023-03-01T13:47:16;7.60;99.90
5848;DHT22;8756;49.29324300;8.70599800;2023-03-01T13:49:53;7.50;99.90
5848;DHT22;8756;49.29324300;8.70599800;2023-03-01T13:54:57;7.60;99.90
5848;DHT22;8756;49.29324300;8.70599800;2023-03-01T13:57:28;7.60;99.90
5848;DHT22;8756;49.29324300;8.70599800;2023-03-01T13:59:58;7.60;99.90
5848;DHT22;8756;49.29324300;8.70599800;2023-03-01T14:02:23;7.60;99.90
5848;DHT22;8756;49.29324300;8.70599800;2023-03-01T14:04:59;7.60;99.90
5848;DHT22;8756;49.29324300;8.70599800;2023-03-01T14:07:27;7.60;99.90
5848;DHT22;8756;49.29324300;8.70599800;2023-03-01T14:10:05;7.60;99.90
5848;DHT22;8756;49.29324300;8.70599800;2023-03-01T14:12:45;7.70;99.90
5848;DHT22;8756;49.29324300;8.70599800;2023-03-01T14:15:33;7.80;99.90
5848;DHT22;8756;49.29324300;8.70599800;2023-03-01T14:18:23;7.70;99.90
5848;DHT22;8756;49.29324300;8.70599800;2023-03-01T14:20:51;7.70;99.90
5848;DHT22;8756;49.29324300;8.70599800;2023-03-01T14:23:21;7.80;99.90
5848;DHT22;8756;49.29324300;8.70599800;2023-03-01T14:25:54;7.80;99.90
5848;DHT22;8756;49.29324300;8.70599800;2023-03-01T14:28:27;7.80;99.90
5848;DHT22;8756;49.29324300;8.70599800;2023-03-01T14:31:02;7.90;99.90
5848;DHT22;8756;49.29324300;8.70599800;2023-03-01T14:36:02;7.90;99.90
5848;DHT22;8756;49.29324300;8.70599800;2023-03-01T14:38:35;7.80;99.90
5848;DHT22;8756;49.29324300;8.70599800;2023-03-01T14:41:15;7.90;99.90
5848;DHT22;8756;49.29324300;8.70599800;2023-03-01T14:43:49;7.90;99.90
5848;DHT22;8756;49.29324300;8.70599800;2023-03-01T14:46:25;7.90;99.90
5848;DHT22;8756;49.29324300;8.70599800;2023-03-01T14:49:06;7.90;99.90
5848;DHT22;8756;49.29324300;8.70599800;2023-03-01T14:51:41;7.90;99.90
5848;DHT22;8756;49.29324300;8.70599800;2023-03-01T14:54:27;8.00;99.90
5848;DHT22;8756;49.29324300;8.70599800;2023-03-01T14:57:05;7.90;99.90
5848;DHT22;8756;49.29324300;8.70599800;2023-03-01T14:59:33;7.90;99.90
5848;DHT22;8756;49.29324300;8.70599800;2023-03-01T15:02:00;7.90;99.90
5848;DHT22;8756;49.29324300;8.70599800;2023-03-01T15:04:27;7.90;99.90
5848;DHT22;8756;49.29324300;8.70599800;2023-03-01T15:06:54;7.80;99.90
5848;DHT22;8756;49.29324300;8.70599800;2023-03-01T15:09:21;7.80;99.90
5848;DHT22;8756;49.29324300;8.70599800;2023-03-01T15:11:48;7.80;99.90
5848;DHT22;8756;49.29324300;8.70599800;2023-03-01T15:14:43;7.80;99.90
5848;DHT22;8756;49.29324300;8.70599800;2023-03-01T15:17:25;7.80;99.90
5848;DHT22;8756;49.29324300;8.70599800;2023-03-01T15:19:52;7.90;99.90
5848;DHT22;8756;49.29324300;8.70599800;2023-03-01T15:22:18;7.90;99.90
5848;DHT22;8756;49.29324300;8.70599800;2023-03-01T15:24:51;7.90;99.90
5848;DHT22;8756;49.29324300;8.70599800;2023-03-01T15:27:20;7.80;99.90
5848;DHT22;8756;49.29324300;8.70599800;2023-03-01T15:29:55;7.90;99.90
5848;DHT22;8756;49.29324300;8.70599800;2023-03-01T15:32:36;7.80;99.90
5848;DHT22;8756;49.29324300;8.70599800;2023-03-01T15:40:54;7.70;99.90
5848;DHT22;8756;49.29324300;8.70599800;2023-03-01T15:46:17;7.70;99.90
5848;DHT22;8756;49.29324300;8.70599800;2023-03-01T15:48:47;7.70;99.90
5848;DHT22;8756;49.29324300;8.70599800;2023-03-01T15:51:22;7.70;99.90
5848;DHT22;8756;49.29324300;8.70599800;2023-03-01T15:53:54;7.60;99.90
5848;DHT22;8756;49.29324300;8.70599800;2023-03-01T15:56:19;7.70;99.90
5848;DHT22;8756;49.29324300;8.70599800;2023-03-01T15:58:45;7.60;99.90